Time;durP1;ratioP1;P1;durP2;ratioP2;P2;SDS_P1;SDS_P2;PMS_P1;PMS_P2;Temp;Humidity;BMP_temperature;BMP_pressure;BME280_temperature;BME280_humidity;BME280_pressure;Samples;Min_cycle;Max_cycle;Signal;HPM_P1;HPM_P2
2022/01/23 00:00:15;;;;;;;14.37;10.07;;;3.90;99.90;;;;;;4956078;29;20445;-70
2022/01/23 00:02:41;;;;;;;12.80;8.53;;;3.90;99.90;;;;;;4954032;29;20468;-70
2022/01/23 00:05:08;;;;;;;12.20;9.53;;;4.00;99.90;;;;;;4955422;29;20451;-70
2022/01/23 00:07:34;;;;;;;11.00;8.83;;;3.90;99.90;;;;;;4955125;28;20440;-70
2022/01/23 00:10:05;;;;;;;13.87;9.40;;;3.80;99.90;;;;;;4956017;29;20443;-70
2022/01/23 00:12:37;;;;;;;11.00;8.47;;;4.00;99.90;;;;;;4955704;29;20468;-70
2022/01/23 00:17:47;;;;;;;11.93;9.00;;;4.00;99.90;;;;;;4955238;29;20447;-68
2022/01/23 00:20:12;;;;;;;14.83;9.50;;;4.10;99.90;;;;;;4953198;29;20938;-69
2022/01/23 00:22:45;;;;;;;12.40;9.13;;;4.10;99.90;;;;;;4954574;29;20602;-68
2022/01/23 00:30:42;;;;;;;13.30;9.57;;;4.10;99.90;;;;;;4955179;29;20451;-69
2022/01/23 00:33:09;;;;;;;12.93;9.17;;;4.10;99.90;;;;;;4955481;29;20506;-69
2022/01/23 00:35:36;;;;;;;12.80;9.10;;;4.20;99.90;;;;;;4954963;29;20493;-69
2022/01/23 00:38:04;;;;;;;14.17;9.60;;;4.20;99.90;;;;;;4954965;29;20445;-69
2022/01/23 00:40:32;;;;;;;13.00;8.90;;;4.20;99.90;;;;;;4955392;29;20974;-69
2022/01/23 00:43:00;;;;;;;11.90;8.53;;;4.30;99.90;;;;;;4955172;29;20486;-69
2022/01/23 00:45:32;;;;;;;14.10;9.70;;;4.20;99.90;;;;;;4955322;29;20455;-69
2022/01/23 00:48:05;;;;;;;16.37;9.77;;;4.30;99.90;;;;;;4955157;28;20444;-69
2022/01/23 00:50:34;;;;;;;12.10;9.53;;;4.30;99.90;;;;;;4955094;29;20437;-70
2022/01/23 00:53:00;;;;;;;11.33;8.37;;;4.30;99.90;;;;;;4953573;29;20543;-69
2022/01/23 00:55:26;;;;;;;14.40;9.80;;;4.30;99.90;;;;;;4954600;28;20495;-68
2022/01/23 00:57:51;;;;;;;12.50;9.20;;;4.20;99.90;;;;;;4954863;29;20445;-69
2022/01/23 01:00:17;;;;;;;11.90;8.80;;;4.20;99.90;;;;;;4954709;29;20216;-69
2022/01/23 01:02:43;;;;;;;10.60;8.07;;;4.20;99.90;;;;;;4954724;29;20212;-69
2022/01/23 01:05:09;;;;;;;9.03;6.83;;;4.20;99.90;;;;;;4954104;29;20451;-69
2022/01/23 01:07:35;;;;;;;11.03;8.47;;;4.30;99.90;;;;;;4954861;28;20600;-69
2022/01/23 01:10:07;;;;;;;13.67;8.13;;;4.30;99.90;;;;;;4954738;29;20464;-69
2022/01/23 01:12:40;;;;;;;12.83;8.10;;;4.30;99.90;;;;;;4954752;29;20236;-69
2022/01/23 01:31:39;;;;;;;13.00;9.43;;;4.30;99.90;;;;;;4954695;29;20439;-70
2022/01/23 01:36:37;;;;;;;12.77;8.53;;;4.20;99.90;;;;;;4954312;29;20441;-69
2022/01/23 01:39:06;;;;;;;12.63;9.40;;;4.10;99.90;;;;;;4954509;28;20429;-69
2022/01/23 01:41:38;;;;;;;12.53;7.63;;;4.10;99.90;;;;;;4954079;29;20448;-69
2022/01/23 01:44:04;;;;;;;11.67;7.23;;;4.10;99.90;;;;;;4953848;29;20461;-69
2022/01/23 01:46:30;;;;;;;12.60;8.50;;;4.20;99.90;;;;;;4953902;28;20515;-69
2022/01/23 01:48:56;;;;;;;10.87;8.40;;;4.30;99.90;;;;;;4953916;29;20556;-69
2022/01/23 01:51:23;;;;;;;12.30;7.77;;;4.40;99.90;;;;;;4953896;29;20192;-69
2022/01/23 01:53:53;;;;;;;11.53;8.33;;;4.40;99.90;;;;;;4953229;29;20464;-69
2022/01/23 01:56:19;;;;;;;11.53;9.47;;;4.40;99.90;;;;;;4953771;28;20799;-69
2022/01/23 01:59:10;;;;;;;10.40;8.53;;;4.50;99.90;;;;;;4953919;29;20440;-70
2022/01/23 02:09:26;;;;;;;12.63;9.47;;;4.60;99.90;;;;;;4953815;29;20443;-69
2022/01/23 02:12:26;;;;;;;11.17;7.90;;;4.70;99.90;;;;;;4953236;29;20470;-69
2022/01/23 02:55:50;;;;;;;12.90;9.53;;;4.20;99.90;;;;;;4953172;29;20192;-70
2022/01/23 02:58:21;;;;;;;12.90;9.13;;;4.20;99.90;;;;;;4952715;29;20846;-69
2022/01/23 03:01:31;;;;;;;14.00;9.60;;;4.10;99.90;;;;;;4953174;29;20523;-69
2022/01/23 03:03:43;;;;;;;14.50;9.80;;;4.20;99.90;;;;;;4947313;29;20478;-69
2022/01/23 03:11:28;;;;;;;14.60;8.80;;;4.40;99.90;;;;;;4953473;29;20464;-69
2022/01/23 03:14:02;;;;;;;12.23;7.90;;;4.40;99.90;;;;;;4953041;28;21011;-69
2022/01/23 03:25:02;;;;;;;12.50;9.57;;;4.40;99.90;;;;;;4952964;29;20977;-69
2022/01/23 03:32:43;;;;;;;12.67;8.80;;;4.50;99.90;;;;;;4952664;29;20557;-69
2022/01/23 03:35:08;;;;;;;13.87;8.50;;;4.50;99.90;;;;;;4952805;29;20444;-69
2022/01/23 03:37:34;;;;;;;11.07;8.03;;;4.50;99.90;;;;;;4952745;29;20444;-69
2022/01/23 03:39:59;;;;;;;11.77;8.87;;;4.60;99.90;;;;;;4952884;29;20188;-69
2022/01/23 03:42:26;;;;;;;13.67;9.63;;;4.70;99.90;;;;;;4952547;28;20290;-69
2022/01/23 03:45:54;;;;;;;15.03;8.30;;;4.60;99.90;;;;;;4955649;29;20606;-69
2022/01/23 03:47:42;;;;;;;12.17;9.20;;;4.50;99.90;;;;;;4947318;29;20436;-69
2022/01/23 03:50:11;;;;;;;13.87;9.70;;;4.50;99.90;;;;;;4956224;29;20439;-68
2022/01/23 03:52:38;;;;;;;13.07;9.40;;;4.60;99.90;;;;;;4956114;29;20470;-69
2022/01/23 03:55:06;;;;;;;15.20;10.00;;;4.60;99.90;;;;;;4955556;29;20499;-70
2022/01/23 03:57:32;;;;;;;12.90;9.00;;;4.50;99.90;;;;;;4956103;29;20451;-69
2022/01/23 03:59:57;;;;;;;15.60;9.20;;;4.40;99.90;;;;;;4944539;29;20448;-69
2022/01/23 04:02:23;;;;;;;12.50;8.53;;;4.40;99.90;;;;;;4956002;29;20471;-69
2022/01/23 04:04:49;;;;;;;10.80;8.87;;;4.40;99.90;;;;;;4956584;29;20210;-70
2022/01/23 04:07:20;;;;;;;12.47;8.60;;;4.40;99.90;;;;;;4955592;29;20179;-70
2022/01/23 04:09:47;;;;;;;10.73;7.57;;;4.40;99.90;;;;;;4955996;29;20176;-70
2022/01/23 04:12:41;;;;;;;12.90;9.13;;;4.40;99.90;;;;;;4955855;28;20540;-70
2022/01/23 04:15:20;;;;;;;15.30;9.17;;;4.40;99.90;;;;;;4955596;28;20444;-70
2022/01/23 04:20:47;;;;;;;12.00;8.23;;;4.50;99.90;;;;;;4955267;29;20872;-69
2022/01/23 04:34:26;;;;;;;15.63;10.00;;;4.40;99.90;;;;;;4955571;29;20452;-69
2022/01/23 04:59:41;;;;;;;13.20;9.37;;;4.40;99.90;;;;;;4955204;29;20519;-69
2022/01/23 05:06:42;;;;;;;11.60;9.30;;;4.40;99.90;;;;;;4954889;29;20882;-69
2022/01/23 05:09:09;;;;;;;11.70;8.93;;;4.40;99.90;;;;;;4954628;28;20173;-70
2022/01/23 05:11:38;;;;;;;12.80;8.40;;;4.40;99.90;;;;;;4955214;28;20973;-69
2022/01/23 05:14:04;;;;;;;16.00;10.50;;;4.40;99.90;;;;;;4954552;28;20475;-70
2022/01/23 05:16:31;;;;;;;11.50;9.00;;;4.40;99.90;;;;;;4954610;28;20516;-70
2022/01/23 05:18:58;;;;;;;12.77;9.17;;;4.30;99.90;;;;;;4954591;29;20440;-69
2022/01/23 05:24:08;;;;;;;13.57;9.77;;;4.40;99.90;;;;;;4954315;29;20546;-70
2022/01/23 05:26:42;;;;;;;11.90;10.10;;;4.50;99.90;;;;;;4954469;29;20958;-70
2022/01/23 05:29:07;;;;;;;12.57;9.73;;;4.60;99.90;;;;;;4954243;28;20268;-70
2022/01/23 05:31:33;;;;;;;16.63;10.63;;;4.60;99.90;;;;;;4954447;29;20597;-69
2022/01/23 05:33:59;;;;;;;14.03;10.10;;;4.60;99.90;;;;;;4954248;29;20531;-70
2022/01/23 05:36:24;;;;;;;16.33;11.10;;;4.60;99.90;;;;;;4954438;29;20188;-70
2022/01/23 05:38:50;;;;;;;19.53;11.50;;;4.60;99.90;;;;;;4954105;29;20193;-70
2022/01/23 05:41:15;;;;;;;14.07;10.00;;;4.60;99.90;;;;;;4953931;29;20176;-70
2022/01/23 05:43:41;;;;;;;16.63;11.23;;;4.60;99.90;;;;;;4954265;29;20212;-70
2022/01/23 05:46:06;;;;;;;16.70;10.50;;;4.60;99.90;;;;;;4953926;29;20673;-70
2022/01/23 05:48:32;;;;;;;17.23;10.80;;;4.50;99.90;;;;;;4954138;29;20188;-69
2022/01/23 05:50:57;;;;;;;16.73;10.87;;;4.50;99.90;;;;;;4953791;29;20196;-70
2022/01/23 05:53:23;;;;;;;15.70;9.60;;;4.50;99.90;;;;;;4954024;29;20208;-70
2022/01/23 05:55:48;;;;;;;14.70;10.90;;;4.40;99.90;;;;;;4953906;29;20192;-69
2022/01/23 05:58:14;;;;;;;14.60;10.43;;;4.40;99.90;;;;;;4953732;29;20185;-70
2022/01/23 06:00:39;;;;;;;16.50;11.47;;;4.30;99.90;;;;;;4953972;29;20185;-69
2022/01/23 06:03:05;;;;;;;12.97;10.17;;;4.40;99.90;;;;;;4953724;29;20235;-69
2022/01/23 06:05:30;;;;;;;13.17;10.03;;;4.40;99.90;;;;;;4952812;28;20173;-69
2022/01/23 06:07:57;;;;;;;19.73;12.40;;;4.50;99.90;;;;;;4953759;29;20596;-70
2022/01/23 06:10:25;;;;;;;13.47;10.13;;;4.30;99.90;;;;;;4953945;29;20432;-70
2022/01/23 06:12:51;;;;;;;15.67;11.93;;;4.40;99.90;;;;;;4953552;28;20300;-70
2022/01/23 06:15:17;;;;;;;14.60;11.93;;;4.40;99.90;;;;;;4953560;29;20511;-70
2022/01/23 06:17:43;;;;;;;14.17;11.63;;;4.40;99.90;;;;;;4953887;29;20215;-70
2022/01/23 06:20:11;;;;;;;14.53;10.43;;;4.30;99.90;;;;;;4953418;29;20475;-70
2022/01/23 06:22:37;;;;;;;15.10;10.30;;;4.40;99.90;;;;;;4953229;29;20212;-69
2022/01/23 06:25:05;;;;;;;15.60;10.73;;;4.40;99.90;;;;;;4953279;29;20967;-70
2022/01/23 06:27:32;;;;;;;19.97;11.40;;;4.40;99.90;;;;;;4953379;29;20204;-69
2022/01/23 06:29:57;;;;;;;15.53;11.00;;;4.40;99.90;;;;;;4953242;29;20449;-69
2022/01/23 06:32:24;;;;;;;15.07;11.07;;;4.40;99.90;;;;;;4953183;29;20463;-70
2022/01/23 06:34:49;;;;;;;20.00;12.50;;;4.40;99.90;;;;;;4953175;29;20181;-70
2022/01/23 06:37:15;;;;;;;13.47;10.50;;;4.40;99.90;;;;;;4953249;29;20468;-70
2022/01/23 06:39:41;;;;;;;17.73;10.60;;;4.50;99.90;;;;;;4953533;29;20227;-69
2022/01/23 06:42:07;;;;;;;15.57;10.40;;;4.50;99.90;;;;;;4951706;29;20566;-70
2022/01/23 06:44:33;;;;;;;15.33;10.80;;;4.50;99.90;;;;;;4953441;28;20184;-69
2022/01/23 06:46:59;;;;;;;14.37;10.00;;;4.50;99.90;;;;;;4952968;29;20468;-69
2022/01/23 06:49:24;;;;;;;18.07;13.13;;;4.40;99.90;;;;;;4953235;29;20479;-69
2022/01/23 06:51:51;;;;;;;27.43;15.80;;;4.30;99.90;;;;;;4951909;29;20185;-70
2022/01/23 06:54:17;;;;;;;24.93;16.77;;;4.30;99.90;;;;;;4950450;29;20558;-70
2022/01/23 06:56:42;;;;;;;21.60;15.00;;;4.20;99.90;;;;;;4953063;29;20440;-69
2022/01/23 06:59:08;;;;;;;17.10;13.73;;;4.10;99.90;;;;;;4953257;29;20251;-70
2022/01/23 07:01:33;;;;;;;17.80;13.70;;;4.10;99.90;;;;;;4952691;29;20185;-70
2022/01/23 07:03:59;;;;;;;20.90;13.47;;;4.20;99.90;;;;;;4952796;29;20220;-70
2022/01/23 07:06:25;;;;;;;21.33;13.73;;;4.30;99.90;;;;;;4952868;29;20210;-70
2022/01/23 07:08:50;;;;;;;21.50;14.50;;;4.30;99.90;;;;;;4953532;29;20622;-69
2022/01/23 07:11:16;;;;;;;21.00;14.80;;;4.40;99.90;;;;;;4953014;29;20184;-70
2022/01/23 07:13:41;;;;;;;20.70;12.70;;;4.40;99.90;;;;;;4953172;29;20208;-69
2022/01/23 07:16:07;;;;;;;23.03;15.50;;;4.50;99.90;;;;;;4952610;29;20629;-69
2022/01/23 07:18:33;;;;;;;24.33;14.27;;;4.50;99.90;;;;;;4956125;28;20188;-70
2022/01/23 07:20:59;;;;;;;19.63;12.87;;;4.50;99.90;;;;;;4957193;29;20614;-70
2022/01/23 07:23:24;;;;;;;20.70;12.33;;;4.60;99.90;;;;;;4956957;29;20503;-70
2022/01/23 07:25:50;;;;;;;21.43;14.13;;;4.60;99.90;;;;;;4956019;29;20465;-69
2022/01/23 07:28:19;;;;;;;21.40;13.23;;;4.60;99.90;;;;;;4956836;29;20686;-70
2022/01/23 07:30:59;;;;;;;22.57;14.30;;;4.70;99.90;;;;;;4957086;29;20436;-70
2022/01/23 07:33:24;;;;;;;27.27;16.77;;;4.70;99.90;;;;;;4956791;29;20575;-70
2022/01/23 07:35:50;;;;;;;21.87;15.20;;;4.80;99.90;;;;;;4955662;29;20530;-69
2022/01/23 07:38:17;;;;;;;24.27;17.00;;;4.70;99.90;;;;;;4956896;29;20526;-70
2022/01/23 07:40:48;;;;;;;19.70;13.00;;;4.70;99.90;;;;;;4956768;29;20200;-69
2022/01/23 07:43:14;;;;;;;19.57;12.33;;;4.60;99.90;;;;;;4956089;29;20539;-70
2022/01/23 07:45:40;;;;;;;19.73;13.97;;;4.40;99.90;;;;;;4943389;28;20437;-70
2022/01/23 07:48:06;;;;;;;19.00;13.83;;;4.30;99.90;;;;;;4956265;29;20467;-69
2022/01/23 07:50:32;;;;;;;18.67;12.90;;;4.30;99.90;;;;;;4951892;29;20557;-69
2022/01/23 07:52:58;;;;;;;19.60;14.83;;;4.40;99.90;;;;;;4954602;29;20464;-70
2022/01/23 07:55:24;;;;;;;31.70;14.53;;;4.50;99.90;;;;;;4955740;29;20832;-69
2022/01/23 07:57:52;;;;;;;24.83;14.33;;;4.60;99.90;;;;;;4956190;29;20203;-70
2022/01/23 08:00:18;;;;;;;17.73;12.50;;;4.60;99.90;;;;;;4956327;29;20316;-69
2022/01/23 08:02:44;;;;;;;18.70;12.77;;;4.60;99.90;;;;;;4954949;29;20564;-70
2022/01/23 08:05:10;;;;;;;15.03;11.97;;;4.60;99.90;;;;;;4955959;29;20487;-69
2022/01/23 08:07:36;;;;;;;15.70;12.50;;;4.60;99.90;;;;;;4956073;29;20432;-69
2022/01/23 08:10:05;;;;;;;13.13;10.40;;;4.70;99.90;;;;;;4954943;29;20487;-69
2022/01/23 08:12:31;;;;;;;15.33;11.00;;;4.70;99.90;;;;;;4955206;29;20488;-70
2022/01/23 08:14:57;;;;;;;17.30;12.07;;;4.80;99.90;;;;;;4956026;29;20515;-69
2022/01/23 08:17:24;;;;;;;20.47;12.90;;;4.90;99.90;;;;;;4955473;29;20847;-70
2022/01/23 08:19:54;;;;;;;21.03;12.70;;;4.90;99.90;;;;;;4955884;28;20440;-69
2022/01/23 08:22:24;;;;;;;14.90;12.30;;;4.80;99.90;;;;;;4955702;29;20468;-70
2022/01/23 08:24:51;;;;;;;19.10;13.63;;;4.80;99.90;;;;;;4955449;29;20433;-69
2022/01/23 08:27:16;;;;;;;22.93;13.30;;;4.90;99.90;;;;;;4955442;29;20523;-69
2022/01/23 08:29:42;;;;;;;16.67;13.80;;;4.80;99.90;;;;;;4954990;28;20998;-70
2022/01/23 08:32:09;;;;;;;19.03;14.53;;;4.90;99.90;;;;;;4955223;29;22030;-70
2022/01/23 08:34:35;;;;;;;19.73;13.83;;;5.00;99.90;;;;;;4955105;29;20977;-70
2022/01/23 08:37:02;;;;;;;17.93;14.60;;;5.10;99.90;;;;;;4954682;29;20436;-67
2022/01/23 08:39:30;;;;;;;16.50;13.67;;;5.20;99.90;;;;;;4955691;29;20483;-67
2022/01/23 08:41:56;;;;;;;19.97;14.80;;;5.20;99.90;;;;;;4954971;29;20527;-68
2022/01/23 08:44:26;;;;;;;20.30;15.40;;;5.30;99.90;;;;;;4955616;29;20852;-68
2022/01/23 08:46:52;;;;;;;20.83;15.00;;;5.30;99.90;;;;;;4955204;29;20172;-68
2022/01/23 08:49:20;;;;;;;21.33;15.37;;;5.40;99.90;;;;;;4955476;29;20436;-67
2022/01/23 08:51:48;;;;;;;23.57;14.80;;;5.50;99.90;;;;;;4955350;29;20479;-67
2022/01/23 08:54:14;;;;;;;28.17;17.23;;;5.50;99.90;;;;;;4955008;28;20477;-69
2022/01/23 08:56:40;;;;;;;36.00;19.57;;;5.70;99.90;;;;;;4954077;29;20487;-68
2022/01/23 08:59:06;;;;;;;29.07;17.77;;;5.80;99.90;;;;;;4955103;29;20181;-68
2022/01/23 09:01:33;;;;;;;31.80;18.70;;;5.70;99.90;;;;;;4955501;29;20444;-68
2022/01/23 09:03:59;;;;;;;20.90;15.90;;;5.60;99.90;;;;;;4955024;29;20275;-68
2022/01/23 09:06:24;;;;;;;24.20;18.40;;;5.70;99.90;;;;;;4953548;29;20528;-67
2022/01/23 09:08:51;;;;;;;26.70;20.03;;;5.80;99.90;;;;;;4954481;29;20200;-67
2022/01/23 09:11:27;;;;;;;27.20;21.23;;;6.00;99.90;;;;;;4954810;29;20169;-67
2022/01/23 09:14:12;;;;;;;28.13;16.80;;;6.10;99.90;;;;;;4944651;29;20451;-67
2022/01/23 09:16:41;;;;;;;19.90;14.30;;;6.10;99.90;;;;;;4954232;28;20463;-67
2022/01/23 09:19:07;;;;;;;20.33;15.07;;;6.10;99.90;;;;;;4953562;29;20491;-68
2022/01/23 09:21:34;;;;;;;19.77;15.30;;;6.20;99.90;;;;;;4952632;29;20862;-67
2022/01/23 09:23:59;;;;;;;16.37;13.50;;;6.30;99.90;;;;;;4953625;28;20472;-68
2022/01/23 09:26:26;;;;;;;21.00;14.50;;;6.50;99.90;;;;;;4951130;29;20444;-67
2022/01/23 09:28:55;;;;;;;22.17;16.20;;;6.60;99.90;;;;;;4954406;29;20328;-67
2022/01/23 09:31:34;;;;;;;21.63;15.80;;;6.70;99.90;;;;;;4954574;29;20437;-67
2022/01/23 09:34:00;;;;;;;20.60;15.77;;;6.60;99.90;;;;;;4945362;29;20466;-67
2022/01/23 09:36:25;;;;;;;18.93;15.57;;;6.60;99.90;;;;;;4954281;29;20797;-67
2022/01/23 09:38:51;;;;;;;20.60;15.30;;;6.70;99.90;;;;;;4954235;29;20173;-67
2022/01/23 09:41:20;;;;;;;20.40;14.93;;;6.80;99.90;;;;;;4953283;28;20177;-67
2022/01/23 09:43:46;;;;;;;21.00;17.20;;;6.80;99.90;;;;;;4946362;29;20212;-67
2022/01/23 09:46:13;;;;;;;20.70;15.90;;;7.00;99.90;;;;;;4948443;29;20471;-67
2022/01/23 09:48:42;;;;;;;18.37;14.67;;;7.40;99.90;;;;;;4951017;29;20500;-68
2022/01/23 09:51:08;;;;;;;21.67;15.70;;;7.50;99.90;;;;;;4951021;29;20528;-67
2022/01/23 09:53:36;;;;;;;21.50;16.77;;;7.60;99.90;;;;;;4951272;29;20560;-68
2022/01/23 09:56:05;;;;;;;14.63;12.23;;;8.00;99.90;;;;;;4951128;29;20185;-68
2022/01/23 09:58:32;;;;;;;16.97;13.80;;;8.00;99.90;;;;;;4951342;29;20941;-67
2022/01/23 10:00:59;;;;;;;19.20;13.97;;;8.00;99.90;;;;;;4951162;29;20436;-68
2022/01/23 10:03:24;;;;;;;16.37;12.80;;;8.10;99.90;;;;;;4932919;29;20504;-67
2022/01/23 10:05:55;;;;;;;18.03;13.10;;;8.20;99.90;;;;;;4931903;29;20418;-68
2022/01/23 10:08:22;;;;;;;16.70;13.20;;;8.40;99.90;;;;;;4932087;29;20266;-68
2022/01/23 10:10:52;;;;;;;17.00;12.97;;;8.50;99.90;;;;;;4932114;29;20432;-68
2022/01/23 10:13:21;;;;;;;13.97;12.20;;;8.70;99.90;;;;;;4932005;29;20468;-68
2022/01/23 10:15:47;;;;;;;14.63;11.93;;;8.60;99.90;;;;;;4947363;28;20554;-67
2022/01/23 10:18:13;;;;;;;18.17;14.47;;;8.60;99.90;;;;;;4950432;29;21203;-67
2022/01/23 10:20:39;;;;;;;19.67;15.90;;;8.60;99.90;;;;;;4951992;28;20436;-67
2022/01/23 10:23:05;;;;;;;18.03;14.90;;;8.70;99.90;;;;;;4952977;29;20588;-68
2022/01/23 10:25:32;;;;;;;19.40;15.23;;;8.90;99.90;;;;;;4953795;29;20173;-67
2022/01/23 10:28:08;;;;;;;18.03;14.17;;;8.90;99.90;;;;;;4951920;29;20487;-67
2022/01/23 10:30:43;;;;;;;16.90;14.23;;;8.80;99.90;;;;;;4953774;29;20784;-68
2022/01/23 10:33:18;;;;;;;18.17;13.50;;;8.70;99.90;;;;;;4953932;29;20440;-67
2022/01/23 10:36:09;;;;;;;18.10;14.17;;;8.60;99.90;;;;;;4953767;29;20908;-67
2022/01/23 10:38:44;;;;;;;14.93;12.77;;;8.30;99.90;;;;;;4953952;29;20432;-66
2022/01/23 10:49:49;;;;;;;20.70;16.30;;;7.20;99.90;;;;;;4934818;29;20417;-65
2022/01/23 10:52:39;;;;;;;21.73;16.47;;;6.80;99.90;;;;;;4953129;28;20997;-66
2022/01/23 10:55:06;;;;;;;17.33;14.57;;;6.90;99.90;;;;;;4943800;29;20447;-66
2022/01/23 10:57:40;;;;;;;19.27;15.10;;;6.80;99.90;;;;;;4953672;29;20439;-68
2022/01/23 11:00:10;;;;;;;20.33;14.77;;;6.70;99.90;;;;;;4953484;29;20526;-67
2022/01/23 11:02:43;;;;;;;20.67;14.33;;;6.60;99.90;;;;;;4953347;29;20468;-67
2022/01/23 11:05:12;;;;;;;18.77;14.43;;;6.80;99.90;;;;;;4953546;29;20417;-67
2022/01/23 11:07:41;;;;;;;16.30;12.87;;;6.80;99.90;;;;;;4953607;28;20801;-67
2022/01/23 11:10:21;;;;;;;18.57;15.33;;;6.60;99.90;;;;;;4953607;29;20507;-67
2022/01/23 11:18:05;;;;;;;18.50;14.27;;;6.60;99.90;;;;;;4953564;29;20432;-67
2022/01/23 11:20:43;;;;;;;18.93;15.50;;;6.70;99.90;;;;;;4953609;29;20885;-67
2022/01/23 11:23:14;;;;;;;17.73;13.50;;;6.70;99.90;;;;;;4953258;29;20464;-67
2022/01/23 11:25:41;;;;;;;17.17;12.93;;;6.60;99.90;;;;;;4953124;29;20792;-67
2022/01/23 11:28:07;;;;;;;13.73;10.70;;;6.60;99.90;;;;;;4953430;29;20420;-67
2022/01/23 11:30:43;;;;;;;17.80;13.13;;;6.60;99.90;;;;;;4953333;29;20929;-67
2022/01/23 11:33:12;;;;;;;15.43;11.43;;;6.60;99.90;;;;;;4953269;29;20196;-67
2022/01/23 11:35:38;;;;;;;16.73;13.43;;;6.70;99.90;;;;;;4952985;29;20505;-67
2022/01/23 11:38:10;;;;;;;19.13;14.30;;;6.70;99.90;;;;;;4953288;29;20425;-67
2022/01/23 11:54:41;;;;;;;15.13;12.17;;;6.20;99.90;;;;;;4953318;29;20420;-66
2022/01/23 11:57:43;;;;;;;14.93;11.70;;;6.10;99.90;;;;;;4952986;29;20425;-67
2022/01/23 12:00:30;;;;;;;14.90;11.40;;;6.20;99.90;;;;;;4953099;29;20435;-66
2022/01/23 12:03:19;;;;;;;13.60;10.50;;;6.40;99.90;;;;;;4952985;28;21047;-66
2022/01/23 12:05:49;;;;;;;17.87;12.70;;;6.50;99.90;;;;;;4955971;29;20416;-67
2022/01/23 12:08:35;;;;;;;16.13;11.47;;;6.60;99.90;;;;;;4956626;29;20420;-67
2022/01/23 12:13:57;;;;;;;16.30;12.73;;;6.90;99.90;;;;;;4956499;29;20440;-67
2022/01/23 12:16:52;;;;;;;13.60;11.07;;;6.90;99.90;;;;;;4956089;29;20417;-67
2022/01/23 12:19:19;;;;;;;19.13;11.83;;;6.70;99.90;;;;;;4956522;28;20456;-67
2022/01/23 12:21:46;;;;;;;12.50;10.43;;;6.60;99.90;;;;;;4956211;29;20944;-66
2022/01/23 12:24:14;;;;;;;19.23;15.47;;;6.60;99.90;;;;;;4956009;29;20550;-67
2022/01/23 12:26:41;;;;;;;17.20;11.87;;;6.50;99.90;;;;;;4955804;29;20503;-67
2022/01/23 12:29:14;;;;;;;16.50;12.13;;;6.50;99.90;;;;;;4956216;29;20487;-67
2022/01/23 12:31:41;;;;;;;15.83;12.60;;;6.40;99.90;;;;;;4956156;29;20442;-67
2022/01/23 12:34:07;;;;;;;16.70;12.20;;;6.30;99.90;;;;;;4956114;29;20809;-67
2022/01/23 12:36:35;;;;;;;16.23;12.20;;;6.40;99.90;;;;;;4955811;29;20424;-67
2022/01/23 12:39:06;;;;;;;14.70;12.97;;;6.60;99.90;;;;;;4956151;28;20175;-67
2022/01/23 12:41:36;;;;;;;17.17;13.40;;;6.70;99.90;;;;;;4955989;29;20408;-67
2022/01/23 12:44:06;;;;;;;15.90;11.90;;;6.80;99.90;;;;;;4955820;29;20492;-67
2022/01/23 12:46:48;;;;;;;14.03;11.80;;;6.90;99.90;;;;;;4955734;29;20487;-67
2022/01/23 12:49:26;;;;;;;14.60;10.63;;;7.00;99.90;;;;;;4955959;29;20432;-66
2022/01/23 12:52:01;;;;;;;15.87;13.47;;;7.10;99.90;;;;;;4955773;29;20795;-67
2022/01/23 12:54:29;;;;;;;16.67;13.40;;;7.20;99.90;;;;;;4955913;29;20451;-67
2022/01/23 12:56:55;;;;;;;11.97;9.87;;;7.30;99.90;;;;;;4955453;29;20499;-67
2022/01/23 12:59:31;;;;;;;10.40;8.83;;;7.30;99.90;;;;;;4955683;29;20428;-67
2022/01/23 13:02:01;;;;;;;12.20;10.03;;;7.30;99.90;;;;;;4955510;29;20459;-67
2022/01/23 13:04:42;;;;;;;12.43;9.87;;;7.20;99.90;;;;;;4955629;29;20421;-67
2022/01/23 13:07:21;;;;;;;12.30;10.43;;;7.20;99.90;;;;;;4955360;29;20432;-67
2022/01/23 13:09:55;;;;;;;13.30;10.83;;;7.30;99.90;;;;;;4955661;29;20511;-67
2022/01/23 13:12:46;;;;;;;13.10;9.40;;;7.20;99.90;;;;;;4955395;29;20444;-67
2022/01/23 13:15:38;;;;;;;11.27;8.87;;;7.20;99.90;;;;;;4955168;28;20428;-67
2022/01/23 13:18:33;;;;;;;9.27;7.27;;;7.30;99.90;;;;;;4955435;29;20507;-67
2022/01/23 13:32:24;;;;;;;5.90;5.30;;;6.80;99.90;;;;;;4955088;29;20527;-66
2022/01/23 13:35:02;;;;;;;7.60;5.10;;;6.70;99.90;;;;;;4955038;29;20448;-67
2022/01/23 13:37:31;;;;;;;4.67;4.20;;;6.60;99.90;;;;;;4954831;29;20428;-67
2022/01/23 13:40:05;;;;;;;4.90;3.90;;;6.50;99.90;;;;;;4954830;29;20864;-67
2022/01/23 13:51:29;;;;;;;5.80;5.20;;;6.20;99.90;;;;;;4954663;29;20799;-67
2022/01/23 13:59:24;;;;;;;5.73;5.00;;;6.30;99.90;;;;;;4954513;29;20917;-67
2022/01/23 14:01:56;;;;;;;8.77;6.37;;;6.30;99.90;;;;;;4954230;29;20910;-67
2022/01/23 14:04:24;;;;;;;7.43;5.53;;;6.40;99.90;;;;;;4954632;29;20980;-67
2022/01/23 14:06:50;;;;;;;9.03;5.13;;;6.50;99.90;;;;;;4954135;29;20416;-67
2022/01/23 14:09:17;;;;;;;5.67;5.07;;;6.50;99.90;;;;;;4954302;29;20448;-67
2022/01/23 14:11:45;;;;;;;7.17;5.97;;;6.30;99.90;;;;;;4954198;28;20427;-67
2022/01/23 14:14:18;;;;;;;6.50;5.40;;;6.40;99.90;;;;;;4954353;29;20511;-66
2022/01/23 14:16:46;;;;;;;9.00;6.03;;;6.30;99.90;;;;;;4954086;29;20421;-66
2022/01/23 14:19:19;;;;;;;6.70;5.73;;;6.30;99.90;;;;;;4954214;28;20520;-66
2022/01/23 14:21:48;;;;;;;8.20;4.37;;;6.20;99.90;;;;;;4954402;29;20421;-66
2022/01/23 14:24:23;;;;;;;6.83;4.40;;;6.10;99.90;;;;;;4954209;28;20425;-66
2022/01/23 14:27:17;;;;;;;7.00;5.63;;;6.00;99.90;;;;;;4953411;28;20448;-66
2022/01/23 14:29:51;;;;;;;6.97;4.50;;;6.10;99.90;;;;;;4952981;28;20808;-66
2022/01/23 14:32:26;;;;;;;6.63;5.57;;;6.20;99.90;;;;;;4954120;29;20443;-66
2022/01/23 14:35:11;;;;;;;7.33;6.00;;;6.20;99.90;;;;;;4954009;29;20976;-66
2022/01/23 14:37:38;;;;;;;7.20;5.67;;;6.30;99.90;;;;;;4954005;29;20413;-66
2022/01/23 14:40:27;;;;;;;10.47;7.47;;;6.30;99.90;;;;;;4953920;28;20929;-66
2022/01/23 14:43:03;;;;;;;8.83;5.67;;;6.30;99.90;;;;;;4954096;29;20464;-66
2022/01/23 14:45:31;;;;;;;8.20;5.87;;;6.50;99.90;;;;;;4953832;28;20428;-66
2022/01/23 14:47:57;;;;;;;6.73;5.47;;;6.40;99.90;;;;;;4953875;29;20824;-66
2022/01/23 14:50:25;;;;;;;5.60;4.67;;;6.40;99.90;;;;;;4953937;29;20432;-66
2022/01/23 14:52:51;;;;;;;6.00;4.70;;;6.30;99.90;;;;;;4953731;29;20203;-66
2022/01/23 14:55:17;;;;;;;6.57;5.20;;;6.00;99.90;;;;;;4953493;29;20432;-66
2022/01/23 14:57:44;;;;;;;8.37;5.03;;;5.90;99.90;;;;;;4953652;29;20428;-66
2022/01/23 15:00:12;;;;;;;5.67;4.97;;;5.80;99.90;;;;;;4953750;29;20169;-66
2022/01/23 15:02:39;;;;;;;6.60;5.40;;;5.90;99.90;;;;;;4953479;29;20468;-66
2022/01/23 15:05:05;;;;;;;6.00;5.10;;;5.80;99.90;;;;;;4953486;29;20420;-66
2022/01/23 15:07:40;;;;;;;5.87;4.83;;;5.70;99.90;;;;;;4953809;29;20428;-66
2022/01/23 15:10:07;;;;;;;6.70;5.10;;;5.70;99.90;;;;;;4953715;29;20424;-66
2022/01/23 15:12:33;;;;;;;5.07;4.47;;;5.70;99.90;;;;;;4953736;29;20811;-66
2022/01/23 15:14:59;;;;;;;6.23;4.80;;;5.80;99.90;;;;;;4953346;29;20424;-66
2022/01/23 15:17:26;;;;;;;4.20;3.67;;;5.70;99.90;;;;;;4953589;29;20837;-66
2022/01/23 15:19:52;;;;;;;6.23;5.37;;;5.70;99.90;;;;;;4953588;29;20177;-66
2022/01/23 15:22:18;;;;;;;6.43;5.23;;;5.60;99.90;;;;;;4953392;29;20456;-66
2022/01/23 15:24:45;;;;;;;5.67;4.67;;;5.70;99.90;;;;;;4953575;29;20475;-66
2022/01/23 15:27:11;;;;;;;5.50;5.00;;;5.70;99.90;;;;;;4953322;29;20165;-66
2022/01/23 15:29:36;;;;;;;7.80;5.27;;;5.70;99.90;;;;;;4953520;29;20432;-66
2022/01/23 15:32:02;;;;;;;6.27;5.20;;;5.70;99.90;;;;;;4953422;29;20177;-66
2022/01/23 15:34:29;;;;;;;4.90;4.40;;;5.60;99.90;;;;;;4953491;29;20188;-66
2022/01/23 15:36:55;;;;;;;4.80;3.90;;;5.80;99.90;;;;;;4953202;29;20431;-66
2022/01/23 15:39:22;;;;;;;8.87;6.67;;;5.80;99.90;;;;;;4956053;28;20763;-66
2022/01/23 15:41:48;;;;;;;11.00;6.50;;;5.80;99.90;;;;;;4957122;29;20417;-66
2022/01/23 15:44:14;;;;;;;8.37;5.93;;;5.90;99.90;;;;;;4957002;29;20973;-66
2022/01/23 15:46:39;;;;;;;7.83;5.70;;;6.00;99.90;;;;;;4950711;28;20825;-66
2022/01/23 15:49:06;;;;;;;8.60;5.63;;;5.90;99.90;;;;;;4953845;29;20548;-66
2022/01/23 15:51:32;;;;;;;5.27;4.30;;;5.90;99.90;;;;;;4953726;29;20209;-66
2022/01/23 15:53:58;;;;;;;5.70;4.70;;;5.80;99.90;;;;;;4953568;29;20480;-66
2022/01/23 15:56:23;;;;;;;6.73;4.50;;;5.70;99.90;;;;;;4953686;29;20460;-66
2022/01/23 15:58:49;;;;;;;6.33;4.57;;;5.70;99.90;;;;;;4953834;29;20185;-66
2022/01/23 16:01:15;;;;;;;7.03;5.07;;;5.70;99.90;;;;;;4953619;29;20251;-66
2022/01/23 16:03:40;;;;;;;6.00;4.73;;;5.70;99.90;;;;;;4953848;29;20216;-65
2022/01/23 16:06:06;;;;;;;7.33;5.70;;;5.60;99.90;;;;;;4953045;29;20552;-66
2022/01/23 16:08:32;;;;;;;6.20;4.63;;;5.60;99.90;;;;;;4953401;29;20780;-66